Terminal Aerodrome Forecast
Issued by NWS Columbia, SC

Home | Current Version | Previous Version | Text Only | Print | Product List | Glossary On
Versions: 1 2 3 4 5 6 7 8 9 10 11 12 13 14 15 16 17 18 19 20 21 22 23 24 25 26 27 28 29 30 31 32 33 34 35 36 37 38 39 40 41 42 43 44 45 46 47 48 49
000
FTAK31 PAJN 220600 AAA
TAFAGS
TAF AMD
PAGS 220611Z 2206/2306 14011KT 6SM -RA BR SCT010 SCT025 OVC045
      WS020/16040KT
     FM220900 14010KT 6SM -SHRA BR SCT015 OVC030
     FM221300 14009KT P6SM -SHRA BKN025 OVC040
     FM221900 13008KT P6SM -SHRA BKN040 OVC060
     FM230100 15005KT P6SM -SHRA BKN040 OVC060
      AMD NOT SKED=

USA.gov is the U.S. government's official web portal to all federal, state and local government web resources and services.